createdAt,value
2022-09-13T00:00:06.811Z,21.00
2022-09-13T00:02:52.170Z,21.00
2022-09-13T00:05:39.224Z,20.90
2022-09-13T00:08:24.852Z,21.00
2022-09-13T00:11:22.470Z,20.90
2022-09-13T00:14:08.075Z,20.90
2022-09-13T00:16:53.300Z,20.90
2022-09-13T00:19:38.528Z,20.90
2022-09-13T00:22:24.084Z,20.90
2022-09-13T00:25:10.060Z,20.90
2022-09-13T00:27:55.151Z,20.90
2022-09-13T00:30:40.687Z,20.90
2022-09-13T00:33:26.160Z,20.90
2022-09-13T00:36:12.113Z,20.90
2022-09-13T00:38:57.994Z,20.90
2022-09-13T00:41:43.491Z,20.90
2022-09-13T00:44:55.356Z,20.90
2022-09-13T00:47:45.246Z,20.90
2022-09-13T00:50:30.968Z,20.90
2022-09-13T00:53:30.968Z,20.90
2022-09-13T00:56:22.241Z,20.90
2022-09-13T00:59:14.063Z,20.90
2022-09-13T01:02:02.112Z,20.90
2022-09-13T01:04:47.632Z,20.90
2022-09-13T01:07:38.094Z,20.90
2022-09-13T01:10:23.862Z,20.90
2022-09-13T01:13:16.499Z,20.80
2022-09-13T01:16:02.430Z,20.70
2022-09-13T01:18:47.931Z,20.70
2022-09-13T01:22:02.203Z,20.70
2022-09-13T01:25:13.484Z,20.60
2022-09-13T01:28:10.883Z,20.60
2022-09-13T01:31:26.833Z,20.60
2022-09-13T01:34:38.288Z,20.60
2022-09-13T01:37:47.677Z,20.50
2022-09-13T01:40:44.129Z,20.60
2022-09-13T01:44:06.691Z,20.50
2022-09-13T01:47:17.791Z,20.50
2022-09-13T01:50:31.847Z,20.50
2022-09-13T01:53:45.263Z,20.60
2022-09-13T01:56:40.071Z,20.50
2022-09-13T01:59:44.145Z,20.50
2022-09-13T02:03:12.786Z,20.50
2022-09-13T02:06:03.958Z,20.50
2022-09-13T02:08:54.120Z,20.50
2022-09-13T02:11:44.478Z,20.50
2022-09-13T02:14:36.933Z,20.60
2022-09-13T02:17:26.211Z,20.60
2022-09-13T02:20:31.055Z,20.60
2022-09-13T02:23:23.957Z,20.60
2022-09-13T02:26:14.498Z,20.60
2022-09-13T02:29:03.599Z,20.60
2022-09-13T02:32:05.962Z,20.60
2022-09-13T02:35:01.056Z,20.60
2022-09-13T02:37:52.131Z,20.60
2022-09-13T02:40:46.370Z,20.60
2022-09-13T02:43:37.883Z,20.60
2022-09-13T02:46:37.395Z,20.60
2022-09-13T02:49:29.329Z,20.60
2022-09-13T02:52:35.226Z,20.60
2022-09-13T02:55:26.975Z,20.50
2022-09-13T02:58:27.119Z,20.50
2022-09-13T03:01:16.313Z,20.50
2022-09-13T03:04:08.813Z,20.50
2022-09-13T03:06:54.214Z,20.50
2022-09-13T03:09:46.483Z,20.50
2022-09-13T03:13:10.066Z,20.50
2022-09-13T03:16:18.932Z,20.50
2022-09-13T03:19:40.373Z,20.50
2022-09-13T03:22:50.044Z,20.50
2022-09-13T03:25:38.201Z,20.50
2022-09-13T03:28:54.004Z,20.40
2022-09-13T03:31:58.018Z,20.40
2022-09-13T03:34:53.527Z,20.40
2022-09-13T03:38:10.021Z,20.30
2022-09-13T03:41:04.678Z,20.40
2022-09-13T03:43:52.514Z,20.30
2022-09-13T03:46:44.563Z,20.30
2022-09-13T03:49:36.956Z,20.30
2022-09-13T03:52:22.923Z,20.30
2022-09-13T03:55:08.541Z,20.30
2022-09-13T03:57:53.907Z,20.30
2022-09-13T04:00:41.302Z,20.30
2022-09-13T04:03:26.592Z,20.30
2022-09-13T04:06:14.622Z,20.20
2022-09-13T04:09:00.477Z,20.10
2022-09-13T04:11:45.784Z,20.10
2022-09-13T04:14:31.258Z,20.10
2022-09-13T04:17:16.708Z,20.00
2022-09-13T04:20:02.662Z,20.00
2022-09-13T04:22:55.813Z,19.90
2022-09-13T04:25:41.865Z,19.90
2022-09-13T04:28:27.640Z,19.90
2022-09-13T04:31:13.299Z,19.80
2022-09-13T04:34:00.503Z,19.80
2022-09-13T04:36:47.619Z,19.90
2022-09-13T04:39:32.939Z,19.90
2022-09-13T04:42:19.566Z,19.90
2022-09-13T04:45:06.556Z,19.90
2022-09-13T04:47:54.057Z,19.90
2022-09-13T04:50:39.880Z,19.80
2022-09-13T04:53:25.536Z,19.80
2022-09-13T04:56:12.578Z,19.80
2022-09-13T04:58:58.218Z,19.80
2022-09-13T05:01:44.064Z,19.80
2022-09-13T05:04:29.346Z,19.80
2022-09-13T05:07:17.724Z,19.90
2022-09-13T05:10:03.387Z,19.90
2022-09-13T05:12:49.052Z,19.90
2022-09-13T05:15:34.430Z,20.00
2022-09-13T05:18:20.068Z,19.90
2022-09-13T05:21:05.704Z,20.00
2022-09-13T05:23:52.220Z,20.00
2022-09-13T05:26:40.347Z,20.10
2022-09-13T05:29:25.512Z,20.20
2022-09-13T05:32:11.081Z,20.10
2022-09-13T05:34:56.542Z,20.20
2022-09-13T05:37:41.998Z,20.20
2022-09-13T05:40:27.222Z,20.20
2022-09-13T05:43:12.688Z,20.20
2022-09-13T05:46:06.873Z,20.30
2022-09-13T05:48:52.176Z,20.30
2022-09-13T05:51:37.526Z,20.40
2022-09-13T05:54:22.839Z,20.40
2022-09-13T05:57:08.057Z,20.50
2022-09-13T05:59:53.534Z,20.50
2022-09-13T06:02:42.347Z,20.50
2022-09-13T06:05:31.734Z,20.50
2022-09-13T06:08:17.214Z,20.40
2022-09-13T06:11:05.655Z,20.40
2022-09-13T06:13:51.659Z,20.40
2022-09-13T06:16:37.310Z,20.40
2022-09-13T06:19:23.171Z,20.40
2022-09-13T06:22:08.397Z,20.50
2022-09-13T06:24:54.074Z,20.50
2022-09-13T06:27:39.370Z,20.50
2022-09-13T06:30:25.025Z,20.60
2022-09-13T06:33:10.536Z,20.70
2022-09-13T06:35:55.601Z,20.90
2022-09-13T06:38:41.954Z,21.00
2022-09-13T06:41:28.080Z,21.20
2022-09-13T06:44:13.623Z,21.20
2022-09-13T06:46:58.980Z,21.30
2022-09-13T06:49:47.242Z,21.40
2022-09-13T06:52:32.621Z,21.50
2022-09-13T06:55:17.881Z,21.70
2022-09-13T06:58:03.543Z,21.80
2022-09-13T07:00:52.919Z,21.90
2022-09-13T07:03:44.056Z,22.00
2022-09-13T07:06:32.272Z,22.00
2022-09-13T07:09:21.597Z,22.10
2022-09-13T07:12:07.313Z,22.10
2022-09-13T07:14:52.514Z,22.10
2022-09-13T07:17:37.980Z,22.10
2022-09-13T07:20:23.871Z,22.10
2022-09-13T07:23:12.469Z,22.00
2022-09-13T07:26:05.659Z,22.00
2022-09-13T07:28:53.129Z,22.10
2022-09-13T07:31:40.337Z,22.10
2022-09-13T07:34:27.468Z,22.30
2022-09-13T07:37:15.467Z,22.40
2022-09-13T07:40:00.521Z,22.50
2022-09-13T07:42:46.042Z,22.70
2022-09-13T07:45:31.890Z,22.70
2022-09-13T07:48:17.146Z,22.80
2022-09-13T07:51:17.445Z,22.90
2022-09-13T07:54:05.450Z,23.00
2022-09-13T07:56:51.848Z,23.00
2022-09-13T07:59:38.928Z,23.00
2022-09-13T08:02:24.509Z,23.00
2022-09-13T08:05:10.023Z,23.00
2022-09-13T08:07:55.628Z,23.00
2022-09-13T08:10:41.111Z,23.00
2022-09-13T08:13:28.723Z,23.10
2022-09-13T08:16:15.594Z,23.20
2022-09-13T08:19:04.213Z,23.20
2022-09-13T08:21:49.361Z,23.30
2022-09-13T08:24:35.284Z,23.30
2022-09-13T08:27:20.612Z,23.40
2022-09-13T08:30:09.966Z,23.60
2022-09-13T08:32:55.488Z,23.70
2022-09-13T08:35:41.500Z,23.80
2022-09-13T08:38:28.003Z,23.90
2022-09-13T08:41:40.054Z,23.90
2022-09-13T08:44:29.697Z,23.90
2022-09-13T08:47:28.782Z,24.10
2022-09-13T08:50:18.611Z,24.20
2022-09-13T08:53:18.693Z,24.30
2022-09-13T08:56:10.816Z,24.50
2022-09-13T08:59:21.613Z,24.70
2022-09-13T09:02:19.174Z,24.90
2022-09-13T09:05:25.477Z,25.00
2022-09-13T09:08:34.302Z,25.20
2022-09-13T09:11:52.493Z,25.50
2022-09-13T09:14:51.462Z,25.50
2022-09-13T09:17:51.300Z,25.30
2022-09-13T09:20:53.067Z,25.20
2022-09-13T09:23:50.480Z,25.20
2022-09-13T09:26:36.212Z,25.00
2022-09-13T09:29:28.204Z,24.90
2022-09-13T09:32:32.776Z,24.90
2022-09-13T09:35:46.373Z,25.20
2022-09-13T09:38:44.641Z,25.40
2022-09-13T09:41:35.396Z,25.80
2022-09-13T09:44:27.699Z,25.90
2022-09-13T09:47:29.204Z,26.10
2022-09-13T09:50:25.117Z,26.20
2022-09-13T09:53:18.411Z,26.30
2022-09-13T09:56:22.736Z,26.30
2022-09-13T09:59:26.450Z,26.30
2022-09-13T10:02:22.623Z,26.30
2022-09-13T10:05:12.744Z,26.10
2022-09-13T10:08:02.923Z,25.80
2022-09-13T10:10:57.435Z,25.90
2022-09-13T10:14:00.155Z,26.10
2022-09-13T10:16:45.692Z,26.20
2022-09-13T10:19:32.308Z,26.30
2022-09-13T10:22:17.566Z,26.40
2022-09-13T10:25:24.668Z,26.50
2022-09-13T10:28:18.687Z,26.80
2022-09-13T10:31:11.951Z,26.90
2022-09-13T10:34:03.854Z,26.90
2022-09-13T10:37:13.097Z,27.00
2022-09-13T10:40:05.995Z,27.00
2022-09-13T10:42:54.743Z,26.90
2022-09-13T10:45:42.488Z,27.10
2022-09-13T10:48:31.208Z,27.20
2022-09-13T10:51:28.144Z,27.10
2022-09-13T10:54:26.134Z,27.20
2022-09-13T10:57:29.275Z,27.40
2022-09-13T11:00:19.438Z,27.50
2022-09-13T11:03:24.831Z,27.60
2022-09-13T11:06:24.671Z,27.70
2022-09-13T11:09:34.479Z,27.80
2022-09-13T11:12:26.284Z,28.20
2022-09-13T11:15:49.754Z,28.40
2022-09-13T11:18:49.380Z,28.80
2022-09-13T11:21:56.567Z,29.30
2022-09-13T11:25:06.968Z,29.90
2022-09-13T11:28:30.263Z,30.80
2022-09-13T11:31:33.663Z,30.90
2022-09-13T11:34:33.649Z,30.80
2022-09-13T11:37:34.225Z,31.30
2022-09-13T11:40:34.729Z,31.20
2022-09-13T11:43:57.610Z,31.80
2022-09-13T11:46:48.128Z,32.30
2022-09-13T11:49:55.513Z,32.10
2022-09-13T11:53:19.151Z,32.60
2022-09-13T11:56:15.149Z,33.50
2022-09-13T11:59:22.829Z,34.20
2022-09-13T12:02:30.065Z,34.80
2022-09-13T12:05:23.836Z,35.40
2022-09-13T12:08:16.400Z,35.70
2022-09-13T12:11:15.986Z,36.00
2022-09-13T12:14:04.817Z,36.40
2022-09-13T12:17:33.262Z,37.00
2022-09-13T12:20:35.390Z,37.10
2022-09-13T12:23:27.384Z,37.00
2022-09-13T12:26:27.758Z,37.50
2022-09-13T12:29:28.368Z,38.40
2022-09-13T12:32:14.203Z,39.70
2022-09-13T12:35:21.854Z,40.70
2022-09-13T12:38:20.995Z,41.20
2022-09-13T12:41:23.900Z,40.60
2022-09-13T12:44:37.517Z,40.00
2022-09-13T12:47:52.940Z,39.40
2022-09-13T12:50:45.419Z,39.50
2022-09-13T12:54:03.627Z,40.00
2022-09-13T12:57:00.871Z,40.70
2022-09-13T13:00:12.444Z,41.60
2022-09-13T13:03:16.669Z,42.20
2022-09-13T13:06:19.551Z,42.40
2022-09-13T13:09:25.359Z,42.70
2022-09-13T13:12:37.758Z,43.30
2022-09-13T13:15:26.296Z,43.60
2022-09-13T13:18:27.935Z,42.20
2022-09-13T13:21:33.968Z,41.70
2022-09-13T13:24:19.643Z,41.50
2022-09-13T13:27:34.605Z,41.70
2022-09-13T13:30:51.419Z,42.90
2022-09-13T13:33:49.317Z,44.50
2022-09-13T13:36:43.537Z,45.70
2022-09-13T13:39:28.788Z,46.20
2022-09-13T13:42:28.151Z,45.40
2022-09-13T13:45:28.166Z,44.10
2022-09-13T13:48:15.691Z,42.10
2022-09-13T13:51:13.126Z,40.50
2022-09-13T13:54:02.827Z,39.80
2022-09-13T13:56:49.763Z,39.00
2022-09-13T13:59:36.990Z,38.80
2022-09-13T14:02:37.855Z,38.40
2022-09-13T14:05:28.438Z,38.50
2022-09-13T14:08:28.971Z,39.80
2022-09-13T14:11:34.509Z,40.30
2022-09-13T14:14:25.995Z,39.50
2022-09-13T14:17:48.609Z,39.50
2022-09-13T14:20:34.183Z,40.10
2022-09-13T14:23:19.966Z,41.70
2022-09-13T14:26:06.360Z,41.90
2022-09-13T14:28:54.537Z,41.60
2022-09-13T14:31:40.001Z,41.30
2022-09-13T14:34:30.227Z,40.50
2022-09-13T14:37:19.291Z,40.00
2022-09-13T14:40:26.807Z,40.50
2022-09-13T14:43:18.879Z,41.10
2022-09-13T14:46:25.405Z,41.30
2022-09-13T14:49:24.823Z,42.10
2022-09-13T14:52:19.498Z,43.60
2022-09-13T14:55:18.680Z,43.20
2022-09-13T14:58:13.580Z,41.10
2022-09-13T15:01:03.188Z,39.40
2022-09-13T15:03:49.528Z,38.70
2022-09-13T15:06:39.134Z,38.20
2022-09-13T15:09:28.292Z,37.10
2022-09-13T15:12:28.487Z,36.40
2022-09-13T15:15:19.839Z,35.70
2022-09-13T15:18:20.202Z,34.80
2022-09-13T15:21:18.288Z,33.80
2022-09-13T15:24:06.485Z,32.90
2022-09-13T15:27:05.766Z,32.30
2022-09-13T15:29:57.555Z,31.60
2022-09-13T15:32:44.412Z,31.50
2022-09-13T15:35:35.711Z,31.80
2022-09-13T15:38:24.109Z,31.80
2022-09-13T15:41:34.707Z,31.40
2022-09-13T15:44:20.330Z,30.90
2022-09-13T15:47:10.706Z,30.40
2022-09-13T15:49:56.184Z,29.80
2022-09-13T15:52:41.692Z,29.30
2022-09-13T15:55:28.657Z,29.10
2022-09-13T15:58:16.862Z,29.30
2022-09-13T16:01:04.004Z,29.90
2022-09-13T16:03:49.339Z,29.80
2022-09-13T16:06:35.266Z,29.40
2022-09-13T16:09:23.526Z,28.90
2022-09-13T16:12:08.991Z,28.40
2022-09-13T16:14:54.700Z,27.90
2022-09-13T16:17:43.134Z,27.40
2022-09-13T16:20:28.633Z,27.30
2022-09-13T16:23:14.239Z,27.00
2022-09-13T16:26:00.329Z,26.70
2022-09-13T16:28:45.728Z,26.30
2022-09-13T16:31:31.448Z,26.00
2022-09-13T16:34:16.786Z,25.60
2022-09-13T16:37:28.309Z,25.30
2022-09-13T16:40:14.046Z,24.90
2022-09-13T16:42:59.483Z,24.60
2022-09-13T16:45:45.179Z,24.40
2022-09-13T16:48:30.851Z,24.20
2022-09-13T16:51:16.502Z,23.90
2022-09-13T16:54:02.899Z,23.70
2022-09-13T16:56:48.374Z,23.50
2022-09-13T16:59:33.936Z,23.40
2022-09-13T17:02:20.642Z,23.20
2022-09-13T17:05:08.295Z,23.00
2022-09-13T17:07:54.724Z,22.80
2022-09-13T17:10:41.196Z,22.70
2022-09-13T17:13:26.811Z,22.50
2022-09-13T17:16:28.148Z,22.30
2022-09-13T17:19:16.971Z,22.20
2022-09-13T17:22:06.002Z,22.10
2022-09-13T17:24:54.463Z,21.90
2022-09-13T17:27:39.756Z,21.80
2022-09-13T17:30:25.796Z,21.80
2022-09-13T17:33:11.575Z,21.60
2022-09-13T17:36:01.451Z,21.50
2022-09-13T17:38:47.626Z,21.40
2022-09-13T17:41:33.512Z,21.30
2022-09-13T17:44:18.819Z,21.20
2022-09-13T17:47:06.148Z,21.10
2022-09-13T17:49:51.235Z,21.00
2022-09-13T17:52:37.333Z,20.90
2022-09-13T17:55:22.906Z,20.80
2022-09-13T17:58:08.239Z,20.70
2022-09-13T18:01:02.043Z,20.60
2022-09-13T18:03:47.991Z,20.60
2022-09-13T18:06:33.495Z,20.50
2022-09-13T18:09:19.496Z,20.50
2022-09-13T18:12:05.034Z,20.40
2022-09-13T18:14:50.398Z,20.30
2022-09-13T18:17:35.965Z,20.30
2022-09-13T18:20:21.667Z,20.30
2022-09-13T18:23:08.011Z,20.20
2022-09-13T18:26:02.269Z,20.20
2022-09-13T18:28:59.876Z,20.10
2022-09-13T18:31:45.550Z,20.10
2022-09-13T18:34:31.184Z,20.00
2022-09-13T18:37:16.584Z,20.00
2022-09-13T18:40:03.847Z,20.00
2022-09-13T18:42:49.384Z,19.90
2022-09-13T18:45:35.180Z,19.90
2022-09-13T18:48:23.384Z,19.80
2022-09-13T18:51:11.321Z,19.80
2022-09-13T18:53:58.704Z,19.70
2022-09-13T18:56:45.818Z,19.70
2022-09-13T18:59:33.639Z,19.70
2022-09-13T19:02:20.233Z,19.60
2022-09-13T19:05:10.579Z,19.60
2022-09-13T19:08:16.658Z,19.50
2022-09-13T19:11:02.452Z,19.50
2022-09-13T19:13:48.662Z,19.50
2022-09-13T19:16:34.501Z,19.40
2022-09-13T19:19:20.621Z,19.40
2022-09-13T19:22:11.747Z,19.40
2022-09-13T19:24:57.710Z,19.40
2022-09-13T19:27:43.198Z,19.30
2022-09-13T19:30:28.817Z,19.30
2022-09-13T19:33:14.974Z,19.30
2022-09-13T19:36:10.448Z,19.20
2022-09-13T19:38:58.297Z,19.20
2022-09-13T19:41:43.953Z,19.20
2022-09-13T19:44:29.598Z,19.10
2022-09-13T19:48:02.225Z,19.10
2022-09-13T19:50:20.351Z,19.00
2022-09-13T19:53:05.975Z,19.00
2022-09-13T19:55:51.408Z,19.00
2022-09-13T19:58:37.124Z,19.00
2022-09-13T20:01:25.531Z,18.90
2022-09-13T20:04:17.145Z,18.80
2022-09-13T20:07:05.423Z,18.80
2022-09-13T20:09:51.379Z,18.80
2022-09-13T20:12:37.827Z,18.80
2022-09-13T20:15:25.555Z,18.80
2022-09-13T20:18:15.385Z,18.70
2022-09-13T20:21:06.608Z,18.70
2022-09-13T20:23:55.478Z,18.70
2022-09-13T20:26:41.395Z,18.60
2022-09-13T20:29:27.031Z,18.60
2022-09-13T20:32:12.471Z,18.60
2022-09-13T20:34:57.829Z,18.60
2022-09-13T20:37:46.273Z,18.60
2022-09-13T20:40:33.374Z,18.60
2022-09-13T20:43:18.705Z,18.50
2022-09-13T20:46:08.126Z,18.50
2022-09-13T20:48:53.474Z,18.50
2022-09-13T20:51:39.493Z,18.50
2022-09-13T20:54:24.562Z,18.50
2022-09-13T20:57:12.592Z,18.40
2022-09-13T20:59:57.740Z,18.40
2022-09-13T21:02:43.510Z,18.30
2022-09-13T21:05:28.930Z,18.30
2022-09-13T21:08:35.338Z,18.30
2022-09-13T21:11:35.143Z,18.30
2022-09-13T21:14:21.868Z,18.30
2022-09-13T21:17:08.593Z,18.20
2022-09-13T21:19:53.807Z,18.20
2022-09-13T21:22:39.642Z,18.10
2022-09-13T21:25:25.504Z,18.20
2022-09-13T21:28:11.331Z,18.10
2022-09-13T21:31:05.344Z,18.10
2022-09-13T21:34:03.859Z,18.10
2022-09-13T21:36:49.307Z,18.10
2022-09-13T21:39:35.286Z,18.10
2022-09-13T21:42:20.848Z,18.00
2022-09-13T21:45:06.784Z,18.00
2022-09-13T21:47:52.473Z,18.00
2022-09-13T21:50:37.879Z,18.00
2022-09-13T21:53:25.864Z,18.00
2022-09-13T21:56:14.192Z,18.00
2022-09-13T21:59:02.197Z,17.90
2022-09-13T22:01:51.505Z,17.90
2022-09-13T22:04:36.961Z,17.90
2022-09-13T22:07:22.499Z,17.90
2022-09-13T22:10:09.952Z,17.90
2022-09-13T22:12:57.987Z,17.90
2022-09-13T22:15:43.453Z,17.90
2022-09-13T22:18:28.833Z,17.90
2022-09-13T22:21:18.247Z,17.90
2022-09-13T22:24:05.448Z,17.90
2022-09-13T22:26:52.443Z,17.90
2022-09-13T22:29:37.708Z,17.90
2022-09-13T22:32:24.515Z,17.90
2022-09-13T22:35:11.896Z,17.90
2022-09-13T22:37:57.599Z,17.90
2022-09-13T22:40:42.812Z,17.90
2022-09-13T22:43:29.145Z,17.90
2022-09-13T22:46:23.544Z,17.90
2022-09-13T22:49:12.776Z,17.90
2022-09-13T22:51:58.072Z,17.90
2022-09-13T22:54:43.680Z,17.90
2022-09-13T22:57:29.432Z,17.90
2022-09-13T23:00:15.291Z,17.90
2022-09-13T23:03:00.884Z,17.90
2022-09-13T23:05:52.295Z,17.90
2022-09-13T23:08:38.724Z,17.90
2022-09-13T23:11:35.898Z,17.90
2022-09-13T23:14:21.371Z,17.90
2022-09-13T23:17:06.863Z,17.90
2022-09-13T23:19:54.999Z,17.90
2022-09-13T23:22:40.774Z,17.80
2022-09-13T23:25:26.289Z,17.80
2022-09-13T23:28:11.712Z,17.80
2022-09-13T23:30:56.886Z,17.80
2022-09-13T23:33:44.838Z,17.80
2022-09-13T23:36:39.595Z,17.80
2022-09-13T23:39:26.590Z,17.80
2022-09-13T23:42:12.263Z,17.80
2022-09-13T23:44:57.727Z,17.80
2022-09-13T23:47:42.880Z,17.80
2022-09-13T23:50:28.119Z,17.90
2022-09-13T23:53:15.829Z,17.90
2022-09-13T23:56:01.720Z,17.80
2022-09-13T23:58:47.330Z,17.90
